Time;durP1;ratioP1;P1;durP2;ratioP2;P2;SDS_P1;SDS_P2;PMS_P1;PMS_P2;Temp;Humidity;BMP_temperature;BMP_pressure;BME280_temperature;BME280_humidity;BME280_pressure;Samples;Min_cycle;Max_cycle;Signal;HPM_P1;HPM_P2
2022/08/05 00:00:36;;;;;;;4.60;4.20;;;;;;;26.94;54.65;98151.28;4993108;28;103172;-60
2022/08/05 00:03:15;;;;;;;3.88;3.50;;;;;;;27.03;54.06;98158.00;4976354;28;103230;-65
2022/08/05 00:05:44;;;;;;;4.10;3.80;;;;;;;26.92;54.90;98155.28;4990047;28;103812;-65
2022/08/05 00:08:32;;;;;;;3.85;3.55;;;;;;;26.95;55.21;98163.75;4990716;28;103218;-65
2022/08/05 00:11:06;;;;;;;3.63;3.33;;;;;;;26.98;54.96;98152.47;4992648;28;102592;-65
2022/08/05 00:13:54;;;;;;;3.83;3.53;;;;;;;26.93;54.16;98157.75;4993227;28;102700;-65
2022/08/05 00:16:23;;;;;;;3.70;3.40;;;;;;;27.05;53.25;98153.22;4992884;28;103433;-65
2022/08/05 00:19:03;;;;;;;3.38;3.08;;;;;;;27.02;52.45;98153.66;4993786;28;103807;-65
2022/08/05 00:21:34;;;;;;;3.10;2.90;;;;;;;27.03;52.72;98158.00;4992115;28;102730;-65
2022/08/05 00:24:03;;;;;;;3.07;2.87;;;;;;;27.11;52.04;98158.78;4977761;28;103013;-65
2022/08/05 00:26:38;;;;;;;2.80;2.60;;;;;;;27.09;52.01;98166.31;4992301;28;103449;-65
2022/08/05 00:29:17;;;;;;;3.40;3.10;;;;;;;27.06;52.37;98173.81;4973329;28;103298;-60
2022/08/05 00:31:51;;;;;;;2.80;2.60;;;;;;;27.06;52.39;98162.97;4992635;28;103032;-59
2022/08/05 00:34:39;;;;;;;3.63;3.33;;;;;;;26.96;52.96;98161.88;4995680;28;103668;-65
2022/08/05 00:37:29;;;;;;;3.53;3.22;;;;;;;26.85;53.21;98182.44;4990167;28;103270;-65
2022/08/05 00:40:17;;;;;;;3.38;3.08;;;;;;;26.85;52.77;98182.44;4997136;28;103349;-64
2022/08/05 00:42:57;;;;;;;3.85;3.47;;;;;;;26.80;53.13;98185.00;4992087;28;102699;-60
2022/08/05 00:45:25;;;;;;;4.05;3.03;;;;;;;26.85;52.92;98187.84;4997214;28;102788;-65
2022/08/05 00:48:06;;;;;;;4.20;3.80;;;;;;;26.78;53.79;98197.94;4995461;28;103271;-60
2022/08/05 00:50:36;;;;;;;4.05;3.70;;;;;;;26.77;53.39;98212.53;4995057;28;103224;-60
2022/08/05 00:53:06;;;;;;;3.90;3.60;;;;;;;26.40;54.07;98213.53;4975507;28;102731;-60
2022/08/05 00:55:54;;;;;;;4.80;4.10;;;;;;;26.25;54.29;98223.84;4978804;28;103061;-65
2022/08/05 00:58:22;;;;;;;3.63;3.13;;;;;;;26.56;51.31;98225.66;4995118;28;103312;-65
2022/08/05 01:00:55;;;;;;;3.73;3.13;;;;;;;26.67;49.18;98223.03;4994746;28;103167;-61
2022/08/05 01:03:24;;;;;;;4.13;2.97;;;;;;;26.70;47.81;98225.28;4991257;28;102797;-64
2022/08/05 01:06:00;;;;;;;3.35;3.05;;;;;;;26.78;46.58;98229.59;4980345;28;103705;-60
2022/08/05 01:08:30;;;;;;;5.47;2.60;;;;;;;26.70;45.80;98238.00;4993660;28;103538;-60
2022/08/05 01:11:17;;;;;;;3.97;2.30;;;;;;;26.68;46.10;98234.69;4995569;28;103304;-60
2022/08/05 01:14:05;;;;;;;4.15;2.38;;;;;;;26.89;45.64;98239.72;4998228;28;103033;-64
2022/08/05 01:16:42;;;;;;;4.15;2.50;;;;;;;26.67;46.68;98239.28;4997327;28;103139;-60
2022/08/05 01:19:23;;;;;;;4.60;2.35;;;;;;;26.77;46.69;98242.31;4991389;28;103609;-65
2022/08/05 01:22:23;;;;;;;4.85;2.20;;;;;;;26.73;47.13;98253.81;4977270;28;103991;-64
2022/08/05 01:25:13;;;;;;;6.20;2.63;;;;;;;26.67;47.50;98258.25;4997270;28;102712;-60
2022/08/05 01:28:15;;;;;;;4.03;2.42;;;;;;;26.74;47.74;98259.03;4978235;28;102875;-60
2022/08/05 01:30:48;;;;;;;4.57;2.38;;;;;;;26.79;48.01;98253.78;4995815;28;103296;-60
2022/08/05 01:33:28;;;;;;;2.78;2.05;;;;;;;26.74;48.16;98256.31;4998578;28;103242;-61
2022/08/05 01:36:09;;;;;;;6.33;2.80;;;;;;;26.57;48.84;98259.81;4979998;28;102910;-60
2022/08/05 01:38:46;;;;;;;5.38;2.83;;;;;;;26.69;48.68;98260.75;4995612;28;105510;-60
2022/08/05 01:41:20;;;;;;;6.97;2.70;;;;;;;26.65;48.70;98267.66;4978930;28;103303;-61
2022/08/05 01:43:52;;;;;;;3.70;1.90;;;;;;;26.60;49.42;98281.03;4998182;28;103199;-60
2022/08/05 01:46:22;;;;;;;4.22;2.22;;;;;;;26.65;49.36;98287.44;4994119;28;102934;-60
2022/08/05 01:49:17;;;;;;;2.37;2.10;;;;;;;26.77;49.23;98288.38;4991960;28;102934;-60
2022/08/05 01:51:55;;;;;;;2.57;2.17;;;;;;;26.78;49.47;98284.63;4994896;28;103358;-60
2022/08/05 01:54:31;;;;;;;2.13;1.90;;;;;;;26.82;49.80;98285.84;4995297;28;103462;-61
2022/08/05 01:57:01;;;;;;;2.78;2.05;;;;;;;26.79;50.01;98290.88;4991876;28;102913;-60
2022/08/05 01:59:52;;;;;;;5.63;2.20;;;;;;;26.64;50.63;98298.53;4993446;28;102628;-60
2022/08/05 02:02:21;;;;;;;2.20;2.03;;;;;;;26.73;50.46;98294.47;4989602;28;103285;-61
2022/08/05 02:04:58;;;;;;;4.43;2.42;;;;;;;26.71;50.99;98288.44;4991691;28;103979;-64
2022/08/05 02:07:26;;;;;;;3.03;2.10;;;;;;;26.66;51.20;98286.41;4980290;28;102745;-65
2022/08/05 02:09:57;;;;;;;2.70;2.00;;;;;;;26.61;51.83;98286.22;4993443;28;104117;-59
2022/08/05 02:12:34;;;;;;;2.60;1.90;;;;;;;26.64;51.35;98288.50;4992785;28;104192;-61
2022/08/05 02:15:09;;;;;;;1.88;1.75;;;;;;;26.67;51.30;98288.03;4979294;28;103263;-60
2022/08/05 02:17:51;;;;;;;4.18;2.17;;;;;;;26.59;52.30;98290.22;4994487;28;102742;-60
2022/08/05 02:20:46;;;;;;;2.20;2.00;;;;;;;26.50;52.80;98286.97;4994005;28;104253;-60
2022/08/05 02:23:17;;;;;;;3.17;2.20;;;;;;;26.40;52.96;98290.19;4991371;28;103458;-65
2022/08/05 02:25:46;;;;;;;2.40;2.20;;;;;;;26.41;53.27;98291.00;4978924;28;103272;-65
2022/08/05 02:28:23;;;;;;;5.65;2.65;;;;;;;26.15;54.12;98293.91;4996123;28;102618;-65
2022/08/05 02:31:02;;;;;;;2.25;2.05;;;;;;;26.22;54.03;98289.28;4992963;28;103110;-60
2022/08/05 02:33:35;;;;;;;2.47;2.15;;;;;;;26.03;54.64;98285.63;4994685;28;104020;-60
2022/08/05 02:36:10;;;;;;;2.57;2.10;;;;;;;25.85;55.48;98289.06;4979793;28;103287;-64
2022/08/05 02:38:45;;;;;;;3.27;1.70;;;;;;;26.04;54.57;98300.00;4994040;28;102924;-65
2022/08/05 02:41:25;;;;;;;5.18;2.10;;;;;;;26.07;54.77;98304.97;4977722;28;102807;-60
2022/08/05 02:44:06;;;;;;;3.50;2.17;;;;;;;26.02;55.56;98302.91;4993300;28;103697;-61
2022/08/05 02:46:46;;;;;;;3.25;2.60;;;;;;;26.02;55.34;98310.22;4990101;28;103256;-60
2022/08/05 02:49:29;;;;;;;4.18;2.25;;;;;;;26.08;55.58;98310.16;4980594;28;102647;-60
2022/08/05 02:52:07;;;;;;;5.75;2.60;;;;;;;26.02;55.46;98292.09;4978597;28;102801;-60
2022/08/05 02:54:39;;;;;;;3.03;2.20;;;;;;;25.83;56.06;98296.59;4980539;28;103416;-60
2022/08/05 02:57:19;;;;;;;3.13;2.22;;;;;;;25.92;55.89;98295.28;4993132;28;103499;-65
2022/08/05 03:00:09;;;;;;;3.03;2.00;;;;;;;25.98;55.66;98290.03;4991591;28;102690;-65
2022/08/05 03:02:40;;;;;;;2.72;1.90;;;;;;;26.01;55.66;98292.31;4991085;28;103945;-65
2022/08/05 03:05:13;;;;;;;4.57;2.30;;;;;;;26.02;55.54;98289.38;4991001;28;103318;-65
2022/08/05 03:07:44;;;;;;;2.45;2.00;;;;;;;26.05;55.65;98293.56;4991463;28;103667;-64
2022/08/05 03:10:32;;;;;;;2.77;2.00;;;;;;;26.06;55.26;98314.13;4994325;28;102937;-65
2022/08/05 03:13:00;;;;;;;2.60;2.25;;;;;;;26.11;55.19;98325.13;4965040;27;102884;-65
2022/08/05 03:15:27;;;;;;;4.35;2.38;;;;;;;26.12;55.29;98334.94;4993319;28;103389;-64
2022/08/05 03:17:57;;;;;;;2.53;2.25;;;;;;;26.09;55.53;98317.25;4992734;28;103503;-64
2022/08/05 03:20:26;;;;;;;2.20;2.00;;;;;;;26.11;55.59;98327.84;4997085;28;102816;-65
2022/08/05 03:22:55;;;;;;;2.30;2.10;;;;;;;26.14;55.26;98330.97;4992766;28;102661;-59
2022/08/05 03:25:25;;;;;;;2.72;2.30;;;;;;;26.08;55.75;98325.59;4974165;28;103295;-63
2022/08/05 03:28:14;;;;;;;2.40;1.95;;;;;;;26.10;56.15;98331.63;4993107;28;103204;-63
2022/08/05 03:30:48;;;;;;;3.78;2.20;;;;;;;26.04;55.84;98330.59;4975562;28;102804;-64
2022/08/05 03:33:18;;;;;;;3.95;2.30;;;;;;;26.08;55.81;98336.44;4993108;28;104117;-63
2022/08/05 03:35:46;;;;;;;3.33;2.23;;;;;;;26.08;55.65;98331.00;4993000;28;104163;-59
2022/08/05 03:38:15;;;;;;;2.80;2.10;;;;;;;26.08;55.73;98328.31;4973621;28;103284;-59
2022/08/05 03:40:46;;;;;;;2.37;1.77;;;;;;;26.07;55.77;98324.75;4993978;28;102766;-64
2022/08/05 03:43:17;;;;;;;4.75;2.65;;;;;;;25.99;56.57;98329.59;4994548;28;102712;-66
2022/08/05 03:46:05;;;;;;;2.30;2.10;;;;;;;26.00;56.05;98328.53;4992012;28;103907;-64
2022/08/05 03:48:36;;;;;;;3.17;1.98;;;;;;;25.98;56.52;98322.53;4992561;28;103236;-64
2022/08/05 03:51:12;;;;;;;5.78;3.22;;;;;;;25.57;58.05;98325.66;4991506;28;103043;-64
2022/08/05 03:54:06;;;;;;;2.10;1.90;;;;;;;25.72;57.20;98318.09;4993543;28;102961;-64
2022/08/05 03:56:56;;;;;;;2.08;1.90;;;;;;;25.76;57.42;98317.44;4991146;28;104002;-64
2022/08/05 03:59:33;;;;;;;2.83;2.10;;;;;;;25.77;57.42;98304.72;5012941;27;103229;-64
2022/08/05 04:02:16;;;;;;;3.70;2.17;;;;;;;25.71;58.17;98309.13;4976497;28;102808;-64
2022/08/05 04:05:09;;;;;;;3.55;2.45;;;;;;;25.70;57.99;98302.09;4994568;28;102787;-64
2022/08/05 04:07:38;;;;;;;2.75;2.10;;;;;;;25.70;57.72;98312.91;4993888;28;103634;-64
2022/08/05 04:10:26;;;;;;;2.03;1.90;;;;;;;25.72;57.78;98321.63;4976480;28;104500;-64
2022/08/05 04:13:00;;;;;;;5.50;2.60;;;;;;;25.69;58.09;98322.06;4995454;28;102823;-64
2022/08/05 04:15:33;;;;;;;2.30;2.08;;;;;;;25.60;58.60;98311.72;4994445;28;102676;-64
2022/08/05 04:18:05;;;;;;;1.88;1.77;;;;;;;25.62;57.78;98309.63;4992330;28;103657;-64
2022/08/05 04:20:37;;;;;;;3.60;2.40;;;;;;;25.64;57.76;98313.75;4994853;28;103372;-63
2022/08/05 04:23:08;;;;;;;17.33;5.35;;;;;;;23.98;70.36;98325.94;4992275;28;102848;-64
2022/08/05 04:25:42;;;;;;;18.98;6.97;;;;;;;23.57;73.97;98351.16;4992159;28;103879;-64
2022/08/05 04:28:29;;;;;;;5.05;2.65;;;;;;;24.63;65.75;98358.44;4992967;28;103344;-65
2022/08/05 04:30:59;;;;;;;8.48;4.47;;;;;;;25.12;65.36;98376.09;4993835;28;103178;-64
2022/08/05 04:33:29;;;;;;;3.90;2.80;;;;;;;25.37;62.61;98393.31;4992523;28;102834;-64
2022/08/05 04:36:19;;;;;;;5.70;2.88;;;;;;;25.48;62.59;98408.91;4973736;28;102977;-60
2022/08/05 04:39:07;;;;;;;6.10;3.58;;;;;;;25.35;63.53;98427.81;4990400;28;104472;-60
2022/08/05 04:41:35;;;;;;;5.43;3.08;;;;;;;25.29;62.01;98434.91;4976752;28;104125;-60
2022/08/05 04:44:06;;;;;;;5.55;3.15;;;;;;;25.27;61.56;98441.56;4992042;28;103130;-61
2022/08/05 04:46:39;;;;;;;4.53;3.15;;;;;;;25.35;61.89;98449.44;4995379;28;103096;-60
2022/08/05 04:49:07;;;;;;;5.87;3.30;;;;;;;25.32;63.24;98457.97;4991142;28;104078;-60
2022/08/05 04:51:43;;;;;;;3.87;3.20;;;;;;;25.23;61.77;98460.09;5002478;27;103253;-60
2022/08/05 04:54:11;;;;;;;4.18;3.10;;;;;;;25.25;62.31;98474.22;4995262;28;102880;-65
2022/08/05 04:56:39;;;;;;;4.40;3.00;;;;;;;25.25;62.52;98471.53;4975920;28;103118;-64
2022/08/05 04:59:07;;;;;;;5.38;3.58;;;;;;;25.19;62.12;98476.91;4994451;28;103288;-64
2022/08/05 05:01:51;;;;;;;3.78;2.95;;;;;;;25.33;62.30;98486.69;4993084;28;103212;-60
2022/08/05 05:04:39;;;;;;;7.20;3.55;;;;;;;25.35;62.14;98498.94;4992883;28;103607;-60
2022/08/05 05:07:12;;;;;;;7.33;3.57;;;;;;;25.31;61.28;98529.31;4993523;28;102792;-61
2022/08/05 05:09:44;;;;;;;7.10;3.28;;;;;;;25.24;62.10;98542.00;4990338;28;103321;-60
2022/08/05 05:12:11;;;;;;;7.72;3.60;;;;;;;25.27;61.86;98517.25;4992837;28;103198;-60
2022/08/05 05:14:41;;;;;;;4.05;2.78;;;;;;;25.45;60.84;98517.47;4993306;28;103038;-60
2022/08/05 05:17:18;;;;;;;7.17;3.70;;;;;;;25.25;62.46;98527.44;4989963;28;102591;-60
2022/08/05 05:19:54;;;;;;;7.10;4.28;;;;;;;25.32;61.99;98541.78;4971845;28;104150;-60
2022/08/05 05:22:24;;;;;;;3.40;3.10;;;;;;;25.39;62.31;98542.63;4991856;28;102946;-61
2022/08/05 05:24:54;;;;;;;4.47;3.30;;;;;;;25.64;61.32;98540.97;4975123;28;102928;-65
2022/08/05 05:27:26;;;;;;;7.63;3.80;;;;;;;25.34;62.38;98555.94;4991116;28;103051;-64
2022/08/05 05:30:14;;;;;;;7.75;4.32;;;;;;;25.37;62.19;98550.13;4992187;28;103258;-64
2022/08/05 05:33:01;;;;;;;7.18;4.13;;;;;;;25.54;62.26;98551.41;4995558;28;103202;-64
2022/08/05 05:35:43;;;;;;;7.07;3.90;;;;;;;25.67;62.48;98559.50;4996887;28;102853;-64
2022/08/05 05:38:13;;;;;;;10.17;4.43;;;;;;;25.58;62.36;98552.63;4996548;28;102833;-65
2022/08/05 05:40:49;;;;;;;11.27;4.80;;;;;;;25.58;62.28;98559.91;4992551;28;103369;-65
2022/08/05 05:43:19;;;;;;;9.20;4.70;;;;;;;25.69;62.15;98562.81;4992537;28;103062;-64
2022/08/05 05:46:07;;;;;;;8.45;5.00;;;;;;;25.66;62.00;98575.91;4993958;28;103818;-64
2022/08/05 05:48:46;;;;;;;10.33;4.77;;;;;;;25.53;62.80;98565.94;4997174;28;102807;-64
2022/08/05 05:51:20;;;;;;;7.63;5.00;;;;;;;25.46;62.88;98575.09;4995403;28;103759;-64
2022/08/05 05:53:50;;;;;;;11.80;4.53;;;;;;;25.78;61.80;98585.91;4985148;28;104141;-64
2022/08/05 05:56:27;;;;;;;6.93;4.70;;;;;;;25.67;62.93;98588.41;4978095;28;102802;-63
2022/08/05 05:59:02;;;;;;;9.85;5.38;;;;;;;25.70;62.11;98588.84;4993313;28;102598;-64
2022/08/05 06:01:34;;;;;;;7.18;4.18;;;;;;;25.73;62.13;98593.81;4996208;28;103327;-65
2022/08/05 06:04:07;;;;;;;6.40;3.97;;;;;;;26.20;61.12;98590.00;4995850;28;104020;-64
2022/08/05 06:06:39;;;;;;;8.30;4.03;;;;;;;26.00;61.08;98594.59;4993456;28;103143;-60
2022/08/05 06:09:10;;;;;;;7.20;3.97;;;;;;;26.28;60.61;98589.78;4994572;28;103861;-60
2022/08/05 06:11:51;;;;;;;3.65;3.30;;;;;;;26.50;60.48;98585.72;4995700;28;103303;-64
2022/08/05 06:14:29;;;;;;;7.72;3.97;;;;;;;26.41;60.22;98594.31;4993838;28;103321;-60
2022/08/05 06:16:58;;;;;;;7.95;4.00;;;;;;;26.11;60.73;98587.69;4997252;28;102690;-60
2022/08/05 06:19:31;;;;;;;4.00;3.60;;;;;;;26.65;59.88;98593.59;4993015;28;103944;-60
2022/08/05 06:22:02;;;;;;;4.88;3.50;;;;;;;26.71;59.19;98587.31;4979152;28;104155;-60
2022/08/05 06:24:32;;;;;;;9.32;4.13;;;;;;;26.64;58.86;98581.06;4996158;28;103365;-60
2022/08/05 06:27:02;;;;;;;4.90;3.58;;;;;;;26.58;59.37;98587.38;4977479;28;103238;-60
2022/08/05 06:29:31;;;;;;;5.93;3.72;;;;;;;26.12;60.92;98571.25;4992916;28;104046;-60
2022/08/05 06:32:21;;;;;;;6.27;4.47;;;;;;;26.34;60.10;98558.31;4989629;28;103969;-60
2022/08/05 06:34:56;;;;;;;6.10;3.88;;;;;;;26.71;58.72;98571.06;4993125;28;103286;-62
2022/08/05 06:37:26;;;;;;;6.00;3.70;;;;;;;26.81;59.04;98579.56;4991994;28;102696;-60
2022/08/05 06:40:16;;;;;;;7.00;3.70;;;;;;;27.00;57.67;98588.66;4995270;28;103015;-66
2022/08/05 06:42:48;;;;;;;5.90;3.40;;;;;;;27.35;56.14;98583.59;4994448;28;103705;-64
2022/08/05 06:45:20;;;;;;;4.18;2.88;;;;;;;27.81;55.42;98578.63;4994879;28;103262;-64
2022/08/05 06:48:08;;;;;;;4.07;3.03;;;;;;;27.55;56.29;98584.28;4994589;28;102624;-63
2022/08/05 06:50:56;;;;;;;5.40;3.30;;;;;;;27.57;55.19;98582.19;4979015;28;103097;-60
2022/08/05 06:53:27;;;;;;;3.78;3.35;;;;;;;27.81;54.61;98575.94;4996092;28;103312;-64
2022/08/05 06:55:58;;;;;;;6.72;3.60;;;;;;;27.78;53.46;98586.38;4976708;28;103394;-64
2022/08/05 06:58:30;;;;;;;4.25;2.85;;;;;;;28.01;53.66;98584.72;4992077;28;103218;-64
2022/08/05 07:01:05;;;;;;;5.22;3.45;;;;;;;27.83;54.56;98587.38;4993851;28;104537;-59
2022/08/05 07:03:34;;;;;;;4.83;3.40;;;;;;;27.27;56.36;98592.84;4982391;28;104322;-60
2022/08/05 07:06:03;;;;;;;6.40;3.78;;;;;;;27.38;55.57;98602.13;4995734;28;103215;-60
2022/08/05 07:08:42;;;;;;;5.53;3.50;;;;;;;27.43;55.68;98602.34;4996126;28;103255;-60
2022/08/05 07:11:16;;;;;;;4.35;2.90;;;;;;;27.81;54.51;98602.22;4996726;28;102797;-61
2022/08/05 07:16:50;;;;;;;6.70;3.50;;;;;;;28.32;53.77;98610.09;4995673;28;103202;-60
2022/08/05 07:19:38;;;;;;;4.75;3.15;;;;;;;28.12;54.88;98623.88;4979572;28;102731;-61
2022/08/05 07:22:26;;;;;;;3.42;3.00;;;;;;;28.08;54.27;98631.66;4995029;28;102964;-60
2022/08/05 07:24:59;;;;;;;4.28;2.90;;;;;;;27.91;54.68;98632.41;4993464;28;104337;-60
2022/08/05 07:27:48;;;;;;;4.70;3.40;;;;;;;28.32;54.02;98635.38;4995253;28;103546;-60
2022/08/05 07:30:31;;;;;;;4.23;3.30;;;;;;;27.71;54.66;98632.56;4975112;28;102966;-63
2022/08/05 07:33:02;;;;;;;4.60;2.90;;;;;;;28.35;52.73;98624.03;4994822;28;102828;-63
2022/08/05 07:35:36;;;;;;;4.10;2.87;;;;;;;28.20;52.45;98626.31;4996346;28;103447;-63
2022/08/05 07:38:26;;;;;;;3.60;2.80;;;;;;;28.45;51.92;98628.94;4994911;28;103303;-64
2022/08/05 07:41:04;;;;;;;3.83;2.97;;;;;;;28.52;50.77;98635.97;4994884;28;102803;-63
2022/08/05 07:43:54;;;;;;;3.63;2.90;;;;;;;29.45;49.74;98636.44;4977815;28;104098;-63
2022/08/05 07:46:24;;;;;;;3.17;2.87;;;;;;;29.20;48.71;98639.28;4996994;28;103357;-64
2022/08/05 07:48:54;;;;;;;3.70;2.55;;;;;;;29.70;47.85;98633.53;4995072;28;103342;-59
2022/08/05 07:51:36;;;;;;;3.27;2.80;;;;;;;30.38;47.22;98634.66;4993299;28;103021;-60
2022/08/05 07:54:16;;;;;;;4.47;2.88;;;;;;;29.18;47.39;98635.97;4993157;28;103826;-60
2022/08/05 07:56:45;;;;;;;3.10;2.50;;;;;;;29.21;46.99;98634.69;4994578;28;103913;-60
2022/08/05 07:59:31;;;;;;;3.75;2.50;;;;;;;29.53;47.74;98632.56;4999618;28;105468;-64
2022/08/05 08:02:09;;;;;;;2.50;2.10;;;;;;;30.28;45.75;98630.84;4991591;28;102647;-64
2022/08/05 08:04:46;;;;;;;3.17;2.50;;;;;;;30.57;45.19;98623.63;4978082;28;104076;-61
2022/08/05 08:07:16;;;;;;;2.60;2.20;;;;;;;30.75;43.24;98634.34;4995772;28;103363;-60
2022/08/05 08:09:49;;;;;;;2.83;2.20;;;;;;;29.91;44.06;98627.56;4994731;28;103339;-65
2022/08/05 08:12:20;;;;;;;2.40;2.00;;;;;;;30.93;42.45;98628.75;4975434;28;102845;-65
2022/08/05 08:15:10;;;;;;;3.72;1.98;;;;;;;31.72;41.21;98629.69;4995641;28;103005;-61
2022/08/05 08:17:44;;;;;;;2.55;2.05;;;;;;;31.41;41.73;98626.38;4993889;28;103333;-61
2022/08/05 08:20:21;;;;;;;3.20;2.15;;;;;;;30.64;42.16;98635.22;4993029;28;103342;-62
2022/08/05 08:23:09;;;;;;;3.33;2.03;;;;;;;30.41;40.95;98636.91;4994145;28;102974;-64
2022/08/05 08:25:58;;;;;;;4.40;1.80;;;;;;;30.65;41.41;98631.41;4974314;28;103051;-65
2022/08/05 08:28:32;;;;;;;3.22;1.90;;;;;;;30.83;42.02;98629.34;4976243;28;103380;-65
2022/08/05 08:31:06;;;;;;;2.95;2.20;;;;;;;31.38;41.18;98621.41;4995394;28;104150;-61
2022/08/05 08:33:34;;;;;;;3.20;2.22;;;;;;;29.92;43.39;98626.50;4994145;28;102815;-61
2022/08/05 08:36:06;;;;;;;2.88;2.30;;;;;;;30.38;43.17;98620.19;4997274;28;102962;-61
2022/08/05 08:38:54;;;;;;;2.72;2.13;;;;;;;29.90;42.59;98612.25;4996015;28;103779;-61
2022/08/05 08:41:26;;;;;;;2.30;1.90;;;;;;;31.14;41.79;98608.13;4992813;28;103292;-61
2022/08/05 08:44:14;;;;;;;5.25;1.83;;;;;;;31.85;40.26;98615.69;4993308;28;102781;-65
2022/08/05 08:47:04;;;;;;;2.10;1.90;;;;;;;30.52;42.10;98605.25;4974443;28;102809;-61
2022/08/05 08:49:55;;;;;;;2.17;1.97;;;;;;;31.39;40.87;98603.97;4994169;28;103389;-61
2022/08/05 08:52:49;;;;;;;1.70;1.60;;;;;;;32.22;40.53;98596.88;4972556;28;103321;-62
2022/08/05 08:55:21;;;;;;;3.17;2.00;;;;;;;32.64;39.96;98593.38;4994341;28;102915;-62
2022/08/05 08:58:10;;;;;;;2.57;2.00;;;;;;;32.94;37.94;98592.03;4993507;28;103007;-62
2022/08/05 09:00:41;;;;;;;2.10;1.90;;;;;;;32.68;38.96;98596.41;4993799;28;103750;-62
2022/08/05 09:03:11;;;;;;;2.60;2.00;;;;;;;31.53;39.28;98586.22;4995266;28;103210;-62
2022/08/05 09:05:43;;;;;;;3.00;1.95;;;;;;;30.49;41.05;98594.00;4979860;28;102870;-65
2022/08/05 09:08:31;;;;;;;3.93;1.90;;;;;;;31.71;40.19;98576.13;4998268;28;102865;-63
2022/08/05 09:10:59;;;;;;;2.28;1.90;;;;;;;33.07;37.93;98580.72;4994552;28;103246;-62
2022/08/05 09:13:28;;;;;;;3.17;2.13;;;;;;;32.27;40.00;98569.59;4994720;28;103619;-62
2022/08/05 09:16:17;;;;;;;3.47;2.10;;;;;;;32.05;38.80;98566.84;4997356;28;102902;-62
2022/08/05 09:18:47;;;;;;;2.00;1.80;;;;;;;32.92;37.76;98567.69;4999188;28;102906;-62
2022/08/05 09:21:15;;;;;;;3.43;1.80;;;;;;;32.88;37.13;98560.25;4977993;28;103086;-62
2022/08/05 09:24:07;;;;;;;2.47;1.75;;;;;;;33.17;37.67;98558.94;4996574;28;102967;-62
2022/08/05 09:26:37;;;;;;;2.00;1.80;;;;;;;33.61;37.35;98551.41;4998306;28;102670;-63
2022/08/05 09:29:10;;;;;;;3.10;1.95;;;;;;;32.68;37.72;98556.19;4999903;28;102852;-63
2022/08/05 09:32:01;;;;;;;3.47;2.03;;;;;;;31.95;38.51;98544.81;4980822;28;103555;-62
2022/08/05 09:34:53;;;;;;;2.45;1.90;;;;;;;33.33;35.92;98541.56;4999300;28;104101;-62
2022/08/05 09:37:23;;;;;;;2.40;1.70;;;;;;;33.07;37.34;98548.72;4996660;28;102668;-63
2022/08/05 09:40:29;;;;;;;3.00;1.90;;;;;;;32.46;38.41;98546.34;4978448;28;103865;-62
2022/08/05 09:42:59;;;;;;;2.58;1.88;;;;;;;32.54;38.26;98546.75;4979818;28;103465;-66
2022/08/05 09:45:39;;;;;;;2.63;1.87;;;;;;;33.34;36.80;98536.91;4979337;28;104147;-62
2022/08/05 09:48:28;;;;;;;2.13;1.80;;;;;;;32.64;36.25;98538.69;4995579;28;102634;-66
2022/08/05 09:51:00;;;;;;;2.97;1.80;;;;;;;34.13;35.42;98532.31;4994538;28;102941;-66
2022/08/05 09:53:29;;;;;;;2.00;1.80;;;;;;;33.42;36.83;98529.06;4978833;28;103267;-65
2022/08/05 09:56:25;;;;;;;3.60;1.90;;;;;;;32.91;36.56;98532.38;4995330;28;103235;-66
2022/08/05 09:58:57;;;;;;;3.20;1.88;;;;;;;34.48;36.12;98521.50;5001975;28;103098;-66
2022/08/05 10:01:25;;;;;;;3.20;1.52;;;;;;;35.38;35.34;98525.56;4998051;28;104093;-66
2022/08/05 10:04:03;;;;;;;1.70;1.60;;;;;;;35.20;35.47;98520.63;4991690;28;104428;-66
2022/08/05 10:06:40;;;;;;;2.10;1.90;;;;;;;35.17;35.63;98526.66;4996813;28;103195;-62
2022/08/05 10:09:21;;;;;;;2.27;1.90;;;;;;;34.50;34.83;98527.53;4994225;28;102788;-63
2022/08/05 10:12:06;;;;;;;2.37;1.80;;;;;;;33.93;34.77;98529.44;4996441;28;103094;-63
2022/08/05 10:15:12;;;;;;;2.30;1.83;;;;;;;35.52;33.50;98529.41;4992494;28;103316;-63
2022/08/05 10:17:44;;;;;;;2.15;1.85;;;;;;;36.07;33.32;98523.06;4994222;28;103186;-63
2022/08/05 10:20:24;;;;;;;2.38;1.77;;;;;;;34.75;34.77;98521.34;4997213;28;102855;-63
2022/08/05 10:22:54;;;;;;;2.30;1.60;;;;;;;35.11;33.81;98514.03;4996914;28;102680;-62
2022/08/05 10:25:25;;;;;;;2.30;1.90;;;;;;;36.26;33.27;98515.00;4996560;28;103421;-63
2022/08/05 10:27:53;;;;;;;2.58;1.60;;;;;;;36.05;33.49;98517.81;4997570;28;103483;-63
2022/08/05 10:30:42;;;;;;;3.00;1.52;;;;;;;36.05;32.79;98512.31;4980449;28;102895;-66
2022/08/05 10:33:32;;;;;;;1.60;1.50;;;;;;;36.70;32.00;98513.16;4994552;28;104230;-66
2022/08/05 10:36:04;;;;;;;1.80;1.55;;;;;;;36.54;31.31;98519.88;4997777;28;103807;-66
2022/08/05 10:38:35;;;;;;;2.17;1.57;;;;;;;36.94;31.39;98516.84;4994402;28;103282;-67
2022/08/05 10:41:17;;;;;;;2.47;1.60;;;;;;;36.99;31.35;98514.13;4996199;28;102874;-66
2022/08/05 10:43:55;;;;;;;1.60;1.50;;;;;;;36.90;30.76;98521.31;5003149;27;103002;-66
2022/08/05 10:46:44;;;;;;;3.80;1.85;;;;;;;36.37;30.07;98511.13;4964583;28;103623;-66
2022/08/05 10:49:12;;;;;;;1.98;1.77;;;;;;;34.35;33.50;98509.13;4975551;28;103191;-66
2022/08/05 10:51:44;;;;;;;3.08;1.92;;;;;;;35.04;33.78;98510.69;4994664;28;102625;-63
2022/08/05 10:54:47;;;;;;;1.75;1.65;;;;;;;36.35;32.89;98507.81;4974214;28;102789;-63
2022/08/05 10:57:28;;;;;;;2.85;1.70;;;;;;;36.39;31.61;98506.16;4990680;28;103410;-63
2022/08/05 11:00:11;;;;;;;1.60;1.50;;;;;;;37.05;30.65;98501.97;4997065;28;103382;-63
2022/08/05 11:03:12;;;;;;;3.90;1.70;;;;;;;35.82;31.41;98504.66;4991114;28;102764;-63
2022/08/05 11:06:05;;;;;;;2.50;1.70;;;;;;;36.38;31.92;98504.53;4973089;28;103639;-66
2022/08/05 11:09:12;;;;;;;2.47;1.60;;;;;;;36.83;32.43;98503.47;4996923;28;103269;-66
2022/08/05 11:11:46;;;;;;;1.73;1.63;;;;;;;36.80;31.84;98498.53;4975956;28;103438;-66
2022/08/05 11:14:26;;;;;;;2.90;1.90;;;;;;;36.35;32.36;98507.81;4997685;28;102835;-67
2022/08/05 11:17:28;;;;;;;3.28;2.10;;;;;;;36.37;30.60;98511.94;4993397;28;103067;-67
2022/08/05 11:20:40;;;;;;;2.30;1.83;;;;;;;36.63;31.23;98509.09;4995398;28;104663;-66
2022/08/05 11:23:28;;;;;;;3.15;1.88;;;;;;;36.04;31.97;98510.66;4994585;28;103174;-66
2022/08/05 11:26:02;;;;;;;1.73;1.63;;;;;;;37.16;31.78;98511.81;4994848;28;102672;-67
2022/08/05 11:28:46;;;;;;;4.70;1.98;;;;;;;35.65;32.42;98504.13;4994627;28;104048;-63
2022/08/05 11:31:30;;;;;;;3.78;1.83;;;;;;;35.97;32.51;98504.63;4975009;28;103551;-63
2022/08/05 11:34:36;;;;;;;3.00;1.92;;;;;;;34.51;33.90;98515.47;4993529;28;103251;-63
2022/08/05 11:37:04;;;;;;;3.03;1.80;;;;;;;35.80;33.33;98512.38;4974218;28;103357;-63
2022/08/05 11:39:52;;;;;;;1.80;1.70;;;;;;;36.43;32.19;98510.00;4970562;28;104422;-63
2022/08/05 11:42:32;;;;;;;4.55;1.98;;;;;;;36.23;32.16;98499.91;4950666;28;103318;-63
2022/08/05 11:45:09;;;;;;;3.35;2.03;;;;;;;36.46;31.31;98501.19;4965320;28;103279;-63
2022/08/05 11:47:53;;;;;;;2.10;1.90;;;;;;;36.12;32.45;98505.72;4968492;28;103210;-63
2022/08/05 11:50:22;;;;;;;2.15;1.90;;;;;;;34.62;33.54;98506.22;4968375;28;104179;-63
2022/08/05 11:52:52;;;;;;;3.92;1.92;;;;;;;34.84;33.80;98503.25;4945926;28;103493;-64
2022/08/05 11:55:25;;;;;;;2.57;1.77;;;;;;;35.12;33.68;98499.22;4968477;28;103211;-63
2022/08/05 11:58:04;;;;;;;2.00;1.80;;;;;;;34.97;33.79;98491.75;4974631;28;102802;-63
2022/08/05 12:00:41;;;;;;;3.50;1.80;;;;;;;36.95;32.35;98496.50;4950116;28;104544;-63
2022/08/05 12:03:19;;;;;;;2.17;1.90;;;;;;;34.84;32.32;98495.00;4963669;28;103347;-63
2022/08/05 12:06:01;;;;;;;3.25;1.85;;;;;;;36.68;31.04;98498.88;4976541;28;104538;-63
2022/08/05 12:08:30;;;;;;;3.60;2.00;;;;;;;37.11;31.50;98489.00;4951166;28;103960;-63
2022/08/05 12:11:02;;;;;;;2.67;2.00;;;;;;;36.80;30.87;98493.03;4973214;28;102788;-67
2022/08/05 12:13:33;;;;;;;2.72;2.03;;;;;;;35.10;32.45;98487.66;4974038;28;103406;-67
2022/08/05 12:16:20;;;;;;;2.83;1.90;;;;;;;36.43;31.24;98483.31;4975070;28;103222;-66